sensor_id;sensor_type;location;lat;lon;timestamp;P1;durP1;ratioP1;P2;durP2;ratioP2
14754;SDS011;7469;50.906;6.952;2024-03-08T00:00:13;22.10;;;14.43;;
14754;SDS011;7469;50.906;6.952;2024-03-08T00:02:43;20.63;;;14.07;;
14754;SDS011;7469;50.906;6.952;2024-03-08T00:05:12;22.00;;;14.67;;
14754;SDS011;7469;50.906;6.952;2024-03-08T00:07:43;17.00;;;13.67;;
14754;SDS011;7469;50.906;6.952;2024-03-08T00:10:12;19.63;;;13.90;;
14754;SDS011;7469;50.906;6.952;2024-03-08T00:12:42;21.37;;;13.60;;
14754;SDS011;7469;50.906;6.952;2024-03-08T00:15:12;21.27;;;14.50;;
14754;SDS011;7469;50.906;6.952;2024-03-08T00:17:43;19.00;;;14.60;;
14754;SDS011;7469;50.906;6.952;2024-03-08T00:20:12;22.43;;;14.97;;
14754;SDS011;7469;50.906;6.952;2024-03-08T00:22:41;21.93;;;14.60;;
14754;SDS011;7469;50.906;6.952;2024-03-08T00:25:11;18.63;;;13.93;;
14754;SDS011;7469;50.906;6.952;2024-03-08T00:27:39;18.73;;;14.87;;
14754;SDS011;7469;50.906;6.952;2024-03-08T00:30:07;20.93;;;15.07;;
14754;SDS011;7469;50.906;6.952;2024-03-08T00:32:37;18.47;;;15.17;;
14754;SDS011;7469;50.906;6.952;2024-03-08T00:35:05;19.43;;;13.90;;
14754;SDS011;7469;50.906;6.952;2024-03-08T00:37:34;20.20;;;14.93;;
14754;SDS011;7469;50.906;6.952;2024-03-08T00:40:02;19.67;;;15.03;;
14754;SDS011;7469;50.906;6.952;2024-03-08T00:42:35;21.57;;;14.97;;
14754;SDS011;7469;50.906;6.952;2024-03-08T00:45:04;19.80;;;14.47;;
14754;SDS011;7469;50.906;6.952;2024-03-08T00:47:33;22.17;;;14.43;;
14754;SDS011;7469;50.906;6.952;2024-03-08T00:50:01;23.40;;;14.77;;
14754;SDS011;7469;50.906;6.952;2024-03-08T00:52:30;22.10;;;15.33;;
14754;SDS011;7469;50.906;6.952;2024-03-08T00:54:58;19.67;;;15.03;;
14754;SDS011;7469;50.906;6.952;2024-03-08T00:57:26;20.70;;;15.70;;
14754;SDS011;7469;50.906;6.952;2024-03-08T00:59:55;24.77;;;15.20;;
14754;SDS011;7469;50.906;6.952;2024-03-08T01:02:23;22.80;;;15.33;;
14754;SDS011;7469;50.906;6.952;2024-03-08T01:04:51;20.43;;;15.07;;
14754;SDS011;7469;50.906;6.952;2024-03-08T01:07:19;20.50;;;15.27;;
14754;SDS011;7469;50.906;6.952;2024-03-08T01:09:47;22.47;;;15.53;;
14754;SDS011;7469;50.906;6.952;2024-03-08T01:12:15;19.63;;;15.27;;
14754;SDS011;7469;50.906;6.952;2024-03-08T01:14:43;23.23;;;15.50;;
14754;SDS011;7469;50.906;6.952;2024-03-08T01:17:12;21.33;;;15.10;;
14754;SDS011;7469;50.906;6.952;2024-03-08T01:19:40;18.90;;;14.83;;
14754;SDS011;7469;50.906;6.952;2024-03-08T01:22:11;19.47;;;15.03;;
14754;SDS011;7469;50.906;6.952;2024-03-08T01:24:39;21.80;;;16.07;;
14754;SDS011;7469;50.906;6.952;2024-03-08T01:27:06;20.57;;;15.80;;
14754;SDS011;7469;50.906;6.952;2024-03-08T01:29:35;23.77;;;16.37;;
14754;SDS011;7469;50.906;6.952;2024-03-08T01:32:04;21.43;;;16.30;;
14754;SDS011;7469;50.906;6.952;2024-03-08T01:34:34;21.50;;;15.93;;
14754;SDS011;7469;50.906;6.952;2024-03-08T01:37:02;23.63;;;17.23;;
14754;SDS011;7469;50.906;6.952;2024-03-08T01:39:30;23.33;;;15.60;;
14754;SDS011;7469;50.906;6.952;2024-03-08T01:41:58;22.20;;;15.80;;
14754;SDS011;7469;50.906;6.952;2024-03-08T01:44:27;22.50;;;16.93;;
14754;SDS011;7469;50.906;6.952;2024-03-08T01:46:56;23.37;;;16.13;;
14754;SDS011;7469;50.906;6.952;2024-03-08T01:49:24;21.57;;;15.73;;
14754;SDS011;7469;50.906;6.952;2024-03-08T01:51:55;20.33;;;15.97;;
14754;SDS011;7469;50.906;6.952;2024-03-08T01:54:23;20.53;;;16.70;;
14754;SDS011;7469;50.906;6.952;2024-03-08T01:56:51;24.37;;;16.37;;
14754;SDS011;7469;50.906;6.952;2024-03-08T01:59:20;23.60;;;15.40;;
14754;SDS011;7469;50.906;6.952;2024-03-08T02:01:49;22.93;;;16.63;;
14754;SDS011;7469;50.906;6.952;2024-03-08T02:04:18;24.50;;;16.37;;
14754;SDS011;7469;50.906;6.952;2024-03-08T02:06:47;22.87;;;16.60;;
14754;SDS011;7469;50.906;6.952;2024-03-08T02:09:16;24.63;;;16.80;;
14754;SDS011;7469;50.906;6.952;2024-03-08T02:11:45;22.57;;;16.17;;
14754;SDS011;7469;50.906;6.952;2024-03-08T02:14:13;24.37;;;16.77;;
14754;SDS011;7469;50.906;6.952;2024-03-08T02:16:41;23.03;;;16.60;;
14754;SDS011;7469;50.906;6.952;2024-03-08T02:19:09;22.00;;;16.17;;
14754;SDS011;7469;50.906;6.952;2024-03-08T02:21:38;20.77;;;16.17;;
14754;SDS011;7469;50.906;6.952;2024-03-08T02:24:07;21.13;;;16.30;;
14754;SDS011;7469;50.906;6.952;2024-03-08T02:26:35;23.67;;;16.87;;
14754;SDS011;7469;50.906;6.952;2024-03-08T02:29:05;22.57;;;16.10;;
14754;SDS011;7469;50.906;6.952;2024-03-08T02:31:33;23.87;;;17.07;;
14754;SDS011;7469;50.906;6.952;2024-03-08T02:34:01;24.33;;;16.80;;
14754;SDS011;7469;50.906;6.952;2024-03-08T02:36:29;21.83;;;16.93;;
14754;SDS011;7469;50.906;6.952;2024-03-08T02:39:02;26.50;;;17.10;;
14754;SDS011;7469;50.906;6.952;2024-03-08T02:41:31;22.27;;;16.73;;
14754;SDS011;7469;50.906;6.952;2024-03-08T02:43:59;25.13;;;16.87;;
14754;SDS011;7469;50.906;6.952;2024-03-08T02:46:27;20.27;;;15.23;;
14754;SDS011;7469;50.906;6.952;2024-03-08T02:48:56;26.87;;;17.37;;
14754;SDS011;7469;50.906;6.952;2024-03-08T02:51:24;22.87;;;17.20;;
14754;SDS011;7469;50.906;6.952;2024-03-08T02:53:53;22.67;;;17.27;;
14754;SDS011;7469;50.906;6.952;2024-03-08T02:56:22;27.43;;;16.43;;
14754;SDS011;7469;50.906;6.952;2024-03-08T02:58:50;23.50;;;17.20;;
14754;SDS011;7469;50.906;6.952;2024-03-08T03:01:18;23.50;;;17.13;;
14754;SDS011;7469;50.906;6.952;2024-03-08T03:03:46;25.67;;;16.33;;
14754;SDS011;7469;50.906;6.952;2024-03-08T03:06:14;26.77;;;18.30;;
14754;SDS011;7469;50.906;6.952;2024-03-08T03:08:43;21.97;;;16.10;;
14754;SDS011;7469;50.906;6.952;2024-03-08T03:11:11;22.47;;;17.10;;
14754;SDS011;7469;50.906;6.952;2024-03-08T03:13:42;23.00;;;17.70;;
14754;SDS011;7469;50.906;6.952;2024-03-08T03:16:16;21.93;;;17.60;;
14754;SDS011;7469;50.906;6.952;2024-03-08T03:18:46;23.07;;;17.17;;
14754;SDS011;7469;50.906;6.952;2024-03-08T03:21:14;25.00;;;17.17;;
14754;SDS011;7469;50.906;6.952;2024-03-08T03:23:43;20.40;;;16.40;;
14754;SDS011;7469;50.906;6.952;2024-03-08T03:26:11;22.10;;;17.50;;
14754;SDS011;7469;50.906;6.952;2024-03-08T03:28:39;21.13;;;17.03;;
14754;SDS011;7469;50.906;6.952;2024-03-08T03:31:09;24.43;;;17.70;;
14754;SDS011;7469;50.906;6.952;2024-03-08T03:33:40;23.23;;;18.43;;
14754;SDS011;7469;50.906;6.952;2024-03-08T03:36:08;24.03;;;17.30;;
14754;SDS011;7469;50.906;6.952;2024-03-08T03:38:36;24.57;;;16.97;;
14754;SDS011;7469;50.906;6.952;2024-03-08T03:41:04;26.40;;;16.93;;
14754;SDS011;7469;50.906;6.952;2024-03-08T03:43:36;26.13;;;17.17;;
14754;SDS011;7469;50.906;6.952;2024-03-08T03:46:05;22.30;;;17.10;;
14754;SDS011;7469;50.906;6.952;2024-03-08T03:48:35;22.40;;;17.17;;
14754;SDS011;7469;50.906;6.952;2024-03-08T03:51:04;24.97;;;17.37;;
14754;SDS011;7469;50.906;6.952;2024-03-08T03:53:32;25.20;;;17.80;;
14754;SDS011;7469;50.906;6.952;2024-03-08T03:56:00;23.43;;;17.43;;
14754;SDS011;7469;50.906;6.952;2024-03-08T03:58:28;23.80;;;17.23;;
14754;SDS011;7469;50.906;6.952;2024-03-08T04:00:55;24.67;;;17.17;;
14754;SDS011;7469;50.906;6.952;2024-03-08T04:03:23;24.40;;;17.00;;
14754;SDS011;7469;50.906;6.952;2024-03-08T04:05:53;25.27;;;17.80;;
14754;SDS011;7469;50.906;6.952;2024-03-08T04:08:21;24.70;;;17.20;;
14754;SDS011;7469;50.906;6.952;2024-03-08T04:10:50;27.07;;;18.80;;
14754;SDS011;7469;50.906;6.952;2024-03-08T04:13:18;26.53;;;18.30;;
14754;SDS011;7469;50.906;6.952;2024-03-08T04:15:47;25.63;;;18.63;;
14754;SDS011;7469;50.906;6.952;2024-03-08T04:18:15;24.20;;;17.50;;
14754;SDS011;7469;50.906;6.952;2024-03-08T04:20:44;22.63;;;16.93;;
14754;SDS011;7469;50.906;6.952;2024-03-08T04:23:16;26.67;;;17.93;;
14754;SDS011;7469;50.906;6.952;2024-03-08T04:25:44;25.87;;;19.17;;
14754;SDS011;7469;50.906;6.952;2024-03-08T04:28:12;29.60;;;17.60;;
14754;SDS011;7469;50.906;6.952;2024-03-08T04:30:40;27.13;;;19.27;;
14754;SDS011;7469;50.906;6.952;2024-03-08T04:33:09;22.13;;;16.27;;
14754;SDS011;7469;50.906;6.952;2024-03-08T04:35:37;25.80;;;17.87;;
14754;SDS011;7469;50.906;6.952;2024-03-08T04:38:05;27.40;;;17.77;;
14754;SDS011;7469;50.906;6.952;2024-03-08T04:40:35;26.47;;;17.57;;
14754;SDS011;7469;50.906;6.952;2024-03-08T04:43:03;27.43;;;19.43;;
14754;SDS011;7469;50.906;6.952;2024-03-08T04:45:31;27.73;;;18.57;;
14754;SDS011;7469;50.906;6.952;2024-03-08T04:48:00;24.57;;;17.37;;
14754;SDS011;7469;50.906;6.952;2024-03-08T04:50:28;27.30;;;18.80;;
14754;SDS011;7469;50.906;6.952;2024-03-08T04:52:56;24.23;;;17.77;;
14754;SDS011;7469;50.906;6.952;2024-03-08T04:55:24;24.87;;;17.17;;
14754;SDS011;7469;50.906;6.952;2024-03-08T04:57:53;23.53;;;17.00;;
14754;SDS011;7469;50.906;6.952;2024-03-08T05:00:21;25.50;;;18.13;;
14754;SDS011;7469;50.906;6.952;2024-03-08T05:02:49;22.93;;;17.47;;
14754;SDS011;7469;50.906;6.952;2024-03-08T05:05:19;26.40;;;18.70;;
14754;SDS011;7469;50.906;6.952;2024-03-08T05:07:49;28.50;;;18.10;;
14754;SDS011;7469;50.906;6.952;2024-03-08T05:10:18;24.23;;;18.23;;
14754;SDS011;7469;50.906;6.952;2024-03-08T05:12:46;23.87;;;17.80;;
14754;SDS011;7469;50.906;6.952;2024-03-08T05:15:15;24.63;;;17.17;;
14754;SDS011;7469;50.906;6.952;2024-03-08T05:17:43;24.63;;;17.17;;
14754;SDS011;7469;50.906;6.952;2024-03-08T05:20:11;23.53;;;17.27;;
14754;SDS011;7469;50.906;6.952;2024-03-08T05:22:39;22.60;;;17.50;;
14754;SDS011;7469;50.906;6.952;2024-03-08T05:25:08;26.33;;;18.60;;
14754;SDS011;7469;50.906;6.952;2024-03-08T05:27:36;24.50;;;18.70;;
14754;SDS011;7469;50.906;6.952;2024-03-08T05:30:04;26.20;;;18.43;;
14754;SDS011;7469;50.906;6.952;2024-03-08T05:32:34;26.07;;;17.53;;
14754;SDS011;7469;50.906;6.952;2024-03-08T05:35:03;24.87;;;18.37;;
14754;SDS011;7469;50.906;6.952;2024-03-08T05:37:33;30.93;;;18.80;;
14754;SDS011;7469;50.906;6.952;2024-03-08T05:40:01;29.33;;;18.73;;
14754;SDS011;7469;50.906;6.952;2024-03-08T05:42:41;26.33;;;18.30;;
14754;SDS011;7469;50.906;6.952;2024-03-08T05:45:09;26.53;;;18.97;;
14754;SDS011;7469;50.906;6.952;2024-03-08T05:47:40;27.17;;;18.77;;
14754;SDS011;7469;50.906;6.952;2024-03-08T05:50:08;28.23;;;19.00;;
14754;SDS011;7469;50.906;6.952;2024-03-08T05:52:37;28.17;;;18.83;;
14754;SDS011;7469;50.906;6.952;2024-03-08T05:55:06;27.67;;;19.10;;
14754;SDS011;7469;50.906;6.952;2024-03-08T05:57:36;27.17;;;18.70;;
14754;SDS011;7469;50.906;6.952;2024-03-08T06:00:06;24.07;;;18.77;;
14754;SDS011;7469;50.906;6.952;2024-03-08T06:02:37;27.50;;;19.50;;
14754;SDS011;7469;50.906;6.952;2024-03-08T06:05:09;26.83;;;18.97;;
14754;SDS011;7469;50.906;6.952;2024-03-08T06:07:38;26.50;;;18.37;;
14754;SDS011;7469;50.906;6.952;2024-03-08T06:10:07;27.03;;;19.43;;
14754;SDS011;7469;50.906;6.952;2024-03-08T06:12:37;28.23;;;18.67;;
14754;SDS011;7469;50.906;6.952;2024-03-08T06:15:08;30.13;;;20.27;;
14754;SDS011;7469;50.906;6.952;2024-03-08T06:17:40;26.93;;;19.27;;
14754;SDS011;7469;50.906;6.952;2024-03-08T06:20:10;28.37;;;20.30;;
14754;SDS011;7469;50.906;6.952;2024-03-08T06:22:39;28.03;;;19.33;;
14754;SDS011;7469;50.906;6.952;2024-03-08T06:25:08;31.27;;;20.10;;
14754;SDS011;7469;50.906;6.952;2024-03-08T06:27:37;26.83;;;20.00;;
14754;SDS011;7469;50.906;6.952;2024-03-08T06:30:06;26.53;;;19.30;;
14754;SDS011;7469;50.906;6.952;2024-03-08T06:32:36;28.17;;;20.40;;
14754;SDS011;7469;50.906;6.952;2024-03-08T06:35:04;27.53;;;19.40;;
14754;SDS011;7469;50.906;6.952;2024-03-08T06:37:35;29.50;;;19.93;;
14754;SDS011;7469;50.906;6.952;2024-03-08T06:40:04;30.33;;;19.87;;
14754;SDS011;7469;50.906;6.952;2024-03-08T06:42:34;29.53;;;20.20;;
14754;SDS011;7469;50.906;6.952;2024-03-08T06:45:02;26.90;;;19.53;;
14754;SDS011;7469;50.906;6.952;2024-03-08T06:47:32;30.17;;;20.07;;
14754;SDS011;7469;50.906;6.952;2024-03-08T06:50:01;27.57;;;19.67;;
14754;SDS011;7469;50.906;6.952;2024-03-08T06:52:29;29.90;;;20.23;;
14754;SDS011;7469;50.906;6.952;2024-03-08T06:54:58;28.53;;;19.60;;
14754;SDS011;7469;50.906;6.952;2024-03-08T06:57:28;28.73;;;20.37;;
14754;SDS011;7469;50.906;6.952;2024-03-08T06:59:56;29.30;;;19.20;;
14754;SDS011;7469;50.906;6.952;2024-03-08T07:02:25;32.80;;;22.20;;
14754;SDS011;7469;50.906;6.952;2024-03-08T07:04:53;33.93;;;21.00;;
14754;SDS011;7469;50.906;6.952;2024-03-08T07:07:22;29.17;;;20.07;;
14754;SDS011;7469;50.906;6.952;2024-03-08T07:09:50;30.13;;;19.87;;
14754;SDS011;7469;50.906;6.952;2024-03-08T07:12:19;32.40;;;21.30;;
14754;SDS011;7469;50.906;6.952;2024-03-08T07:14:49;28.10;;;19.70;;
14754;SDS011;7469;50.906;6.952;2024-03-08T07:17:17;29.73;;;20.73;;
14754;SDS011;7469;50.906;6.952;2024-03-08T07:19:45;29.03;;;19.97;;
14754;SDS011;7469;50.906;6.952;2024-03-08T07:22:13;29.00;;;20.47;;
14754;SDS011;7469;50.906;6.952;2024-03-08T07:24:41;27.20;;;19.27;;
14754;SDS011;7469;50.906;6.952;2024-03-08T07:27:31;31.97;;;20.37;;
14754;SDS011;7469;50.906;6.952;2024-03-08T07:30:00;28.63;;;19.77;;
14754;SDS011;7469;50.906;6.952;2024-03-08T07:32:31;29.00;;;20.43;;
14754;SDS011;7469;50.906;6.952;2024-03-08T07:35:00;28.30;;;19.43;;
14754;SDS011;7469;50.906;6.952;2024-03-08T07:37:30;32.77;;;20.90;;
14754;SDS011;7469;50.906;6.952;2024-03-08T07:39:58;28.00;;;20.03;;
14754;SDS011;7469;50.906;6.952;2024-03-08T07:42:26;29.30;;;20.53;;
14754;SDS011;7469;50.906;6.952;2024-03-08T07:44:56;30.57;;;19.97;;
14754;SDS011;7469;50.906;6.952;2024-03-08T07:47:26;32.03;;;19.23;;
14754;SDS011;7469;50.906;6.952;2024-03-08T07:49:53;29.47;;;19.83;;
14754;SDS011;7469;50.906;6.952;2024-03-08T07:52:21;28.17;;;19.50;;
14754;SDS011;7469;50.906;6.952;2024-03-08T07:54:49;31.17;;;19.90;;
14754;SDS011;7469;50.906;6.952;2024-03-08T07:57:17;29.13;;;19.20;;
14754;SDS011;7469;50.906;6.952;2024-03-08T07:59:46;27.27;;;18.03;;
14754;SDS011;7469;50.906;6.952;2024-03-08T08:02:16;30.60;;;19.03;;
14754;SDS011;7469;50.906;6.952;2024-03-08T08:04:45;28.57;;;19.80;;
14754;SDS011;7469;50.906;6.952;2024-03-08T08:07:13;29.17;;;19.80;;
14754;SDS011;7469;50.906;6.952;2024-03-08T08:09:41;29.63;;;18.87;;
14754;SDS011;7469;50.906;6.952;2024-03-08T08:12:09;36.60;;;19.70;;
14754;SDS011;7469;50.906;6.952;2024-03-08T08:14:38;26.43;;;18.80;;
14754;SDS011;7469;50.906;6.952;2024-03-08T08:17:07;27.40;;;18.17;;
14754;SDS011;7469;50.906;6.952;2024-03-08T08:19:37;26.60;;;18.63;;
14754;SDS011;7469;50.906;6.952;2024-03-08T08:22:05;25.70;;;18.37;;
14754;SDS011;7469;50.906;6.952;2024-03-08T08:24:35;25.87;;;18.33;;
14754;SDS011;7469;50.906;6.952;2024-03-08T08:27:04;26.03;;;17.83;;
14754;SDS011;7469;50.906;6.952;2024-03-08T08:29:33;26.07;;;18.40;;
14754;SDS011;7469;50.906;6.952;2024-03-08T08:32:01;23.87;;;17.60;;
14754;SDS011;7469;50.906;6.952;2024-03-08T08:34:30;25.23;;;18.30;;
14754;SDS011;7469;50.906;6.952;2024-03-08T08:36:59;24.70;;;17.90;;
14754;SDS011;7469;50.906;6.952;2024-03-08T08:39:27;24.33;;;16.57;;
14754;SDS011;7469;50.906;6.952;2024-03-08T08:41:55;30.70;;;18.47;;
14754;SDS011;7469;50.906;6.952;2024-03-08T08:44:24;24.87;;;17.50;;
14754;SDS011;7469;50.906;6.952;2024-03-08T08:46:52;27.50;;;17.13;;
14754;SDS011;7469;50.906;6.952;2024-03-08T08:49:31;25.33;;;16.83;;
14754;SDS011;7469;50.906;6.952;2024-03-08T08:52:00;27.73;;;16.70;;
14754;SDS011;7469;50.906;6.952;2024-03-08T08:54:41;23.10;;;16.90;;
14754;SDS011;7469;50.906;6.952;2024-03-08T08:57:09;22.83;;;16.77;;
14754;SDS011;7469;50.906;6.952;2024-03-08T08:59:37;25.13;;;16.17;;
14754;SDS011;7469;50.906;6.952;2024-03-08T09:02:06;22.97;;;16.50;;
14754;SDS011;7469;50.906;6.952;2024-03-08T09:04:35;24.80;;;15.93;;
14754;SDS011;7469;50.906;6.952;2024-03-08T09:07:05;21.90;;;16.07;;
14754;SDS011;7469;50.906;6.952;2024-03-08T09:09:33;24.43;;;15.77;;
14754;SDS011;7469;50.906;6.952;2024-03-08T09:12:01;21.90;;;16.33;;
14754;SDS011;7469;50.906;6.952;2024-03-08T09:14:29;22.27;;;16.40;;
14754;SDS011;7469;50.906;6.952;2024-03-08T09:16:57;20.40;;;14.77;;
14754;SDS011;7469;50.906;6.952;2024-03-08T09:19:25;23.70;;;16.33;;
14754;SDS011;7469;50.906;6.952;2024-03-08T09:21:54;21.63;;;15.13;;
14754;SDS011;7469;50.906;6.952;2024-03-08T09:24:24;19.40;;;14.00;;
14754;SDS011;7469;50.906;6.952;2024-03-08T09:26:52;23.67;;;15.37;;
14754;SDS011;7469;50.906;6.952;2024-03-08T09:29:19;21.37;;;14.83;;
14754;SDS011;7469;50.906;6.952;2024-03-08T09:31:47;17.47;;;13.23;;
14754;SDS011;7469;50.906;6.952;2024-03-08T09:34:15;18.60;;;14.03;;
14754;SDS011;7469;50.906;6.952;2024-03-08T09:36:50;17.97;;;14.47;;
14754;SDS011;7469;50.906;6.952;2024-03-08T09:39:19;20.07;;;14.60;;
14754;SDS011;7469;50.906;6.952;2024-03-08T09:41:50;19.93;;;13.63;;
14754;SDS011;7469;50.906;6.952;2024-03-08T09:44:17;21.17;;;13.33;;
14754;SDS011;7469;50.906;6.952;2024-03-08T09:46:46;15.90;;;12.83;;
14754;SDS011;7469;50.906;6.952;2024-03-08T09:49:14;17.87;;;12.67;;
14754;SDS011;7469;50.906;6.952;2024-03-08T09:51:43;14.17;;;11.07;;
14754;SDS011;7469;50.906;6.952;2024-03-08T09:54:12;14.50;;;11.97;;
14754;SDS011;7469;50.906;6.952;2024-03-08T09:56:50;20.37;;;11.80;;
14754;SDS011;7469;50.906;6.952;2024-03-08T09:59:19;14.77;;;11.87;;
14754;SDS011;7469;50.906;6.952;2024-03-08T10:02:09;14.57;;;11.00;;
14754;SDS011;7469;50.906;6.952;2024-03-08T10:04:42;13.83;;;10.23;;
14754;SDS011;7469;50.906;6.952;2024-03-08T10:07:12;14.67;;;11.43;;
14754;SDS011;7469;50.906;6.952;2024-03-08T10:09:40;13.03;;;10.53;;
14754;SDS011;7469;50.906;6.952;2024-03-08T10:12:15;12.43;;;9.67;;
14754;SDS011;7469;50.906;6.952;2024-03-08T10:14:43;11.67;;;9.90;;
14754;SDS011;7469;50.906;6.952;2024-03-08T10:17:11;10.97;;;9.30;;
14754;SDS011;7469;50.906;6.952;2024-03-08T10:19:39;14.57;;;10.20;;
14754;SDS011;7469;50.906;6.952;2024-03-08T10:22:17;14.27;;;10.70;;
14754;SDS011;7469;50.906;6.952;2024-03-08T10:24:46;16.73;;;9.70;;
14754;SDS011;7469;50.906;6.952;2024-03-08T10:27:17;12.67;;;9.50;;
14754;SDS011;7469;50.906;6.952;2024-03-08T10:29:46;15.13;;;9.50;;
14754;SDS011;7469;50.906;6.952;2024-03-08T10:32:15;12.03;;;9.07;;
14754;SDS011;7469;50.906;6.952;2024-03-08T10:34:43;10.97;;;9.20;;
14754;SDS011;7469;50.906;6.952;2024-03-08T10:37:12;11.03;;;9.10;;
14754;SDS011;7469;50.906;6.952;2024-03-08T10:39:45;12.97;;;9.60;;
14754;SDS011;7469;50.906;6.952;2024-03-08T10:42:21;12.20;;;9.40;;
14754;SDS011;7469;50.906;6.952;2024-03-08T10:44:58;11.73;;;9.57;;
14754;SDS011;7469;50.906;6.952;2024-03-08T10:47:32;12.73;;;9.93;;
14754;SDS011;7469;50.906;6.952;2024-03-08T10:50:10;12.13;;;9.07;;
14754;SDS011;7469;50.906;6.952;2024-03-08T10:52:43;11.67;;;9.37;;
14754;SDS011;7469;50.906;6.952;2024-03-08T10:55:11;11.13;;;8.93;;
14754;SDS011;7469;50.906;6.952;2024-03-08T10:57:42;13.57;;;9.43;;
14754;SDS011;7469;50.906;6.952;2024-03-08T11:00:10;12.90;;;9.57;;
14754;SDS011;7469;50.906;6.952;2024-03-08T11:02:43;13.70;;;9.33;;
14754;SDS011;7469;50.906;6.952;2024-03-08T11:05:11;13.33;;;9.13;;
14754;SDS011;7469;50.906;6.952;2024-03-08T11:08:00;10.40;;;8.63;;
14754;SDS011;7469;50.906;6.952;2024-03-08T11:10:28;10.37;;;8.73;;
14754;SDS011;7469;50.906;6.952;2024-03-08T11:12:58;11.90;;;9.33;;
14754;SDS011;7469;50.906;6.952;2024-03-08T11:15:26;12.90;;;10.00;;
14754;SDS011;7469;50.906;6.952;2024-03-08T11:17:58;12.63;;;10.30;;
14754;SDS011;7469;50.906;6.952;2024-03-08T11:20:27;11.60;;;9.23;;
14754;SDS011;7469;50.906;6.952;2024-03-08T11:22:59;13.30;;;9.87;;
14754;SDS011;7469;50.906;6.952;2024-03-08T11:25:36;12.13;;;10.00;;
14754;SDS011;7469;50.906;6.952;2024-03-08T11:28:09;17.57;;;10.00;;
14754;SDS011;7469;50.906;6.952;2024-03-08T11:33:50;12.63;;;9.60;;
14754;SDS011;7469;50.906;6.952;2024-03-08T11:36:20;11.27;;;9.57;;
14754;SDS011;7469;50.906;6.952;2024-03-08T11:38:49;14.13;;;10.53;;
14754;SDS011;7469;50.906;6.952;2024-03-08T11:41:19;14.10;;;9.53;;
14754;SDS011;7469;50.906;6.952;2024-03-08T11:44:02;11.90;;;9.87;;
14754;SDS011;7469;50.906;6.952;2024-03-08T11:46:33;13.70;;;9.80;;
14754;SDS011;7469;50.906;6.952;2024-03-08T11:49:01;13.30;;;9.90;;
14754;SDS011;7469;50.906;6.952;2024-03-08T11:51:29;12.53;;;9.87;;
14754;SDS011;7469;50.906;6.952;2024-03-08T11:53:59;10.20;;;8.90;;
14754;SDS011;7469;50.906;6.952;2024-03-08T11:56:27;11.57;;;9.80;;
14754;SDS011;7469;50.906;6.952;2024-03-08T11:58:57;11.73;;;9.23;;
14754;SDS011;7469;50.906;6.952;2024-03-08T12:01:25;12.20;;;8.90;;
14754;SDS011;7469;50.906;6.952;2024-03-08T12:03:54;14.33;;;10.03;;
14754;SDS011;7469;50.906;6.952;2024-03-08T12:06:25;11.63;;;9.43;;
14754;SDS011;7469;50.906;6.952;2024-03-08T12:08:53;14.57;;;10.20;;
14754;SDS011;7469;50.906;6.952;2024-03-08T12:11:21;10.37;;;9.13;;
14754;SDS011;7469;50.906;6.952;2024-03-08T12:13:51;11.97;;;9.90;;
14754;SDS011;7469;50.906;6.952;2024-03-08T12:16:23;12.07;;;9.50;;
14754;SDS011;7469;50.906;6.952;2024-03-08T12:18:51;12.70;;;9.33;;
14754;SDS011;7469;50.906;6.952;2024-03-08T12:21:20;11.87;;;9.27;;
14754;SDS011;7469;50.906;6.952;2024-03-08T12:24:01;12.30;;;10.33;;
14754;SDS011;7469;50.906;6.952;2024-03-08T12:26:31;12.37;;;9.00;;
14754;SDS011;7469;50.906;6.952;2024-03-08T12:29:14;12.63;;;9.40;;
14754;SDS011;7469;50.906;6.952;2024-03-08T12:31:47;11.87;;;8.83;;
14754;SDS011;7469;50.906;6.952;2024-03-08T12:34:18;12.50;;;8.67;;
14754;SDS011;7469;50.906;6.952;2024-03-08T12:36:46;13.17;;;10.10;;
14754;SDS011;7469;50.906;6.952;2024-03-08T12:39:18;12.23;;;9.60;;
14754;SDS011;7469;50.906;6.952;2024-03-08T12:41:53;11.33;;;9.23;;
14754;SDS011;7469;50.906;6.952;2024-03-08T12:44:23;14.80;;;9.13;;
14754;SDS011;7469;50.906;6.952;2024-03-08T12:46:53;11.20;;;8.53;;
14754;SDS011;7469;50.906;6.952;2024-03-08T12:49:21;13.27;;;9.33;;
14754;SDS011;7469;50.906;6.952;2024-03-08T12:51:49;10.93;;;9.20;;
14754;SDS011;7469;50.906;6.952;2024-03-08T12:54:18;12.53;;;9.27;;
14754;SDS011;7469;50.906;6.952;2024-03-08T12:56:49;11.67;;;9.23;;
14754;SDS011;7469;50.906;6.952;2024-03-08T13:01:07;10.57;;;8.40;;
14754;SDS011;7469;50.906;6.952;2024-03-08T13:03:35;11.47;;;8.77;;
14754;SDS011;7469;50.906;6.952;2024-03-08T13:06:03;11.27;;;8.80;;
14754;SDS011;7469;50.906;6.952;2024-03-08T13:08:34;12.57;;;9.67;;
14754;SDS011;7469;50.906;6.952;2024-03-08T13:11:05;9.13;;;7.63;;
14754;SDS011;7469;50.906;6.952;2024-03-08T13:13:35;12.70;;;8.40;;
14754;SDS011;7469;50.906;6.952;2024-03-08T13:16:04;11.13;;;8.40;;
14754;SDS011;7469;50.906;6.952;2024-03-08T13:18:35;11.87;;;8.63;;
14754;SDS011;7469;50.906;6.952;2024-03-08T13:21:03;10.70;;;8.50;;
14754;SDS011;7469;50.906;6.952;2024-03-08T13:23:34;11.77;;;9.10;;
14754;SDS011;7469;50.906;6.952;2024-03-08T13:26:05;11.40;;;8.30;;
14754;SDS011;7469;50.906;6.952;2024-03-08T13:28:34;10.20;;;8.33;;
14754;SDS011;7469;50.906;6.952;2024-03-08T13:31:04;11.63;;;9.13;;
14754;SDS011;7469;50.906;6.952;2024-03-08T13:33:34;10.07;;;8.17;;
14754;SDS011;7469;50.906;6.952;2024-03-08T13:36:03;11.60;;;8.90;;
14754;SDS011;7469;50.906;6.952;2024-03-08T13:38:35;10.17;;;7.80;;
14754;SDS011;7469;50.906;6.952;2024-03-08T13:41:04;8.80;;;6.93;;
14754;SDS011;7469;50.906;6.952;2024-03-08T13:43:32;10.77;;;8.27;;
14754;SDS011;7469;50.906;6.952;2024-03-08T13:46:03;11.90;;;8.43;;
14754;SDS011;7469;50.906;6.952;2024-03-08T13:48:34;9.70;;;7.90;;
14754;SDS011;7469;50.906;6.952;2024-03-08T13:51:03;11.87;;;7.43;;
14754;SDS011;7469;50.906;6.952;2024-03-08T13:53:34;10.23;;;7.70;;
14754;SDS011;7469;50.906;6.952;2024-03-08T13:56:02;9.87;;;7.30;;
14754;SDS011;7469;50.906;6.952;2024-03-08T13:58:32;9.07;;;7.33;;
14754;SDS011;7469;50.906;6.952;2024-03-08T14:01:01;8.67;;;7.30;;
14754;SDS011;7469;50.906;6.952;2024-03-08T14:03:32;9.00;;;7.13;;
14754;SDS011;7469;50.906;6.952;2024-03-08T14:06:02;9.00;;;7.40;;
14754;SDS011;7469;50.906;6.952;2024-03-08T14:08:31;10.00;;;7.70;;
14754;SDS011;7469;50.906;6.952;2024-03-08T14:10:59;10.30;;;7.90;;
14754;SDS011;7469;50.906;6.952;2024-03-08T14:13:40;9.17;;;7.60;;
14754;SDS011;7469;50.906;6.952;2024-03-08T14:16:11;11.00;;;8.87;;
14754;SDS011;7469;50.906;6.952;2024-03-08T14:18:40;10.43;;;7.63;;
14754;SDS011;7469;50.906;6.952;2024-03-08T14:21:09;12.33;;;8.00;;
14754;SDS011;7469;50.906;6.952;2024-03-08T14:23:37;10.93;;;7.63;;
14754;SDS011;7469;50.906;6.952;2024-03-08T14:26:08;11.53;;;7.77;;
14754;SDS011;7469;50.906;6.952;2024-03-08T14:28:36;8.23;;;7.33;;
14754;SDS011;7469;50.906;6.952;2024-03-08T14:31:05;9.73;;;7.70;;
14754;SDS011;7469;50.906;6.952;2024-03-08T14:33:37;10.43;;;7.93;;
14754;SDS011;7469;50.906;6.952;2024-03-08T14:36:07;11.03;;;7.63;;
14754;SDS011;7469;50.906;6.952;2024-03-08T14:38:39;10.60;;;7.40;;
14754;SDS011;7469;50.906;6.952;2024-03-08T14:41:07;10.10;;;7.53;;
14754;SDS011;7469;50.906;6.952;2024-03-08T14:43:35;10.37;;;8.00;;
14754;SDS011;7469;50.906;6.952;2024-03-08T14:46:04;8.87;;;7.47;;
14754;SDS011;7469;50.906;6.952;2024-03-08T14:48:32;10.53;;;8.47;;
14754;SDS011;7469;50.906;6.952;2024-03-08T14:51:03;10.33;;;8.00;;
14754;SDS011;7469;50.906;6.952;2024-03-08T14:53:32;11.97;;;8.03;;
14754;SDS011;7469;50.906;6.952;2024-03-08T14:56:00;9.50;;;7.67;;